sensor_id;sensor_type;location;lat;lon;timestamp;temperature;humidity
7708;DHT22;3896;48.758;8.888;2022-12-18T00:00:44;-12.50;59.80
7708;DHT22;3896;48.758;8.888;2022-12-18T00:03:12;-12.50;59.80
7708;DHT22;3896;48.758;8.888;2022-12-18T00:05:46;-12.60;59.80
7708;DHT22;3896;48.758;8.888;2022-12-18T00:08:11;-12.60;59.80
7708;DHT22;3896;48.758;8.888;2022-12-18T00:10:37;-12.60;59.80
7708;DHT22;3896;48.758;8.888;2022-12-18T00:13:02;-12.60;59.90
7708;DHT22;3896;48.758;8.888;2022-12-18T00:15:28;-12.60;60.00
7708;DHT22;3896;48.758;8.888;2022-12-18T00:17:53;-12.60;59.90
7708;DHT22;3896;48.758;8.888;2022-12-18T00:20:19;-12.60;59.90
7708;DHT22;3896;48.758;8.888;2022-12-18T00:22:51;-12.70;60.00
7708;DHT22;3896;48.758;8.888;2022-12-18T00:25:17;-12.70;60.00
7708;DHT22;3896;48.758;8.888;2022-12-18T00:27:42;-12.80;59.90
7708;DHT22;3896;48.758;8.888;2022-12-18T00:30:08;-12.80;59.90
7708;DHT22;3896;48.758;8.888;2022-12-18T00:32:35;-12.80;60.00
7708;DHT22;3896;48.758;8.888;2022-12-18T00:35:00;-12.80;60.00
7708;DHT22;3896;48.758;8.888;2022-12-18T00:37:26;-12.80;60.10
7708;DHT22;3896;48.758;8.888;2022-12-18T00:39:51;-12.80;60.20
7708;DHT22;3896;48.758;8.888;2022-12-18T00:42:17;-12.80;60.30
7708;DHT22;3896;48.758;8.888;2022-12-18T00:45:01;-12.80;60.20
7708;DHT22;3896;48.758;8.888;2022-12-18T00:47:26;-12.90;60.10
7708;DHT22;3896;48.758;8.888;2022-12-18T00:49:53;-12.80;60.20
7708;DHT22;3896;48.758;8.888;2022-12-18T00:52:19;-12.90;60.30
7708;DHT22;3896;48.758;8.888;2022-12-18T00:54:44;-12.90;60.40
7708;DHT22;3896;48.758;8.888;2022-12-18T00:57:10;-12.90;60.50
7708;DHT22;3896;48.758;8.888;2022-12-18T00:59:35;-13.00;60.40
7708;DHT22;3896;48.758;8.888;2022-12-18T01:02:01;-13.00;60.30
7708;DHT22;3896;48.758;8.888;2022-12-18T01:04:26;-13.00;60.30
7708;DHT22;3896;48.758;8.888;2022-12-18T01:06:52;-13.00;60.30
7708;DHT22;3896;48.758;8.888;2022-12-18T01:09:18;-13.00;60.40
7708;DHT22;3896;48.758;8.888;2022-12-18T01:11:43;-13.00;60.50
7708;DHT22;3896;48.758;8.888;2022-12-18T01:14:09;-13.10;60.50
7708;DHT22;3896;48.758;8.888;2022-12-18T01:16:35;-13.10;60.50
7708;DHT22;3896;48.758;8.888;2022-12-18T01:19:00;-13.10;60.50
7708;DHT22;3896;48.758;8.888;2022-12-18T01:21:26;-13.10;60.80
7708;DHT22;3896;48.758;8.888;2022-12-18T01:23:53;-13.10;60.80
7708;DHT22;3896;48.758;8.888;2022-12-18T01:26:19;-13.10;61.50
7708;DHT22;3896;48.758;8.888;2022-12-18T01:28:45;-13.10;60.80
7708;DHT22;3896;48.758;8.888;2022-12-18T01:31:19;-13.10;60.80
7708;DHT22;3896;48.758;8.888;2022-12-18T01:33:45;-13.10;60.80
7708;DHT22;3896;48.758;8.888;2022-12-18T01:36:20;-13.20;60.70
7708;DHT22;3896;48.758;8.888;2022-12-18T01:38:46;-13.20;61.00
7708;DHT22;3896;48.758;8.888;2022-12-18T01:41:13;-13.20;61.20
7708;DHT22;3896;48.758;8.888;2022-12-18T01:43:49;-13.20;61.30
7708;DHT22;3896;48.758;8.888;2022-12-18T01:46:17;-13.20;61.20
7708;DHT22;3896;48.758;8.888;2022-12-18T01:48:43;-13.20;61.20
7708;DHT22;3896;48.758;8.888;2022-12-18T01:51:10;-13.10;61.30
7708;DHT22;3896;48.758;8.888;2022-12-18T01:53:37;-13.10;61.30
7708;DHT22;3896;48.758;8.888;2022-12-18T01:56:04;-13.10;62.20
7708;DHT22;3896;48.758;8.888;2022-12-18T01:58:32;-13.10;61.80
7708;DHT22;3896;48.758;8.888;2022-12-18T02:01:01;-13.10;62.10
7708;DHT22;3896;48.758;8.888;2022-12-18T02:03:26;-13.10;62.40
7708;DHT22;3896;48.758;8.888;2022-12-18T02:08:42;-13.00;62.80
7708;DHT22;3896;48.758;8.888;2022-12-18T02:11:21;-13.00;62.70
7708;DHT22;3896;48.758;8.888;2022-12-18T02:14:11;-12.90;62.90
7708;DHT22;3896;48.758;8.888;2022-12-18T02:16:51;-12.90;63.10
7708;DHT22;3896;48.758;8.888;2022-12-18T02:22:27;-12.90;63.10
7708;DHT22;3896;48.758;8.888;2022-12-18T02:27:34;-12.90;63.10
7708;DHT22;3896;48.758;8.888;2022-12-18T02:30:03;-12.80;63.30
7708;DHT22;3896;48.758;8.888;2022-12-18T02:32:35;-12.80;63.30
7708;DHT22;3896;48.758;8.888;2022-12-18T02:35:04;-12.80;63.50
7708;DHT22;3896;48.758;8.888;2022-12-18T02:37:32;-12.80;63.60
7708;DHT22;3896;48.758;8.888;2022-12-18T02:39:59;-12.70;63.90
7708;DHT22;3896;48.758;8.888;2022-12-18T02:42:26;-12.70;64.00
7708;DHT22;3896;48.758;8.888;2022-12-18T02:44:54;-12.70;64.00
7708;DHT22;3896;48.758;8.888;2022-12-18T02:47:22;-12.70;64.00
7708;DHT22;3896;48.758;8.888;2022-12-18T02:55:22;-12.60;64.00
7708;DHT22;3896;48.758;8.888;2022-12-18T03:00:27;-12.50;64.00
7708;DHT22;3896;48.758;8.888;2022-12-18T03:05:31;-12.40;64.00
7708;DHT22;3896;48.758;8.888;2022-12-18T03:08:12;-12.40;64.00
7708;DHT22;3896;48.758;8.888;2022-12-18T03:10:44;-12.30;63.90
7708;DHT22;3896;48.758;8.888;2022-12-18T03:13:23;-12.30;63.80
7708;DHT22;3896;48.758;8.888;2022-12-18T03:15:53;-12.20;63.90
7708;DHT22;3896;48.758;8.888;2022-12-18T03:18:30;-12.20;63.80
7708;DHT22;3896;48.758;8.888;2022-12-18T03:20:59;-12.10;63.80
7708;DHT22;3896;48.758;8.888;2022-12-18T03:23:28;-12.00;63.90
7708;DHT22;3896;48.758;8.888;2022-12-18T03:25:57;-12.00;63.90
7708;DHT22;3896;48.758;8.888;2022-12-18T03:28:24;-11.90;63.90
7708;DHT22;3896;48.758;8.888;2022-12-18T03:30:56;-11.90;63.90
7708;DHT22;3896;48.758;8.888;2022-12-18T03:33:28;-11.80;64.10
7708;DHT22;3896;48.758;8.888;2022-12-18T03:35:55;-11.80;64.20
7708;DHT22;3896;48.758;8.888;2022-12-18T03:38:21;-11.80;64.30
7708;DHT22;3896;48.758;8.888;2022-12-18T03:40:59;-11.70;64.50
7708;DHT22;3896;48.758;8.888;2022-12-18T03:46:15;-11.60;64.70
7708;DHT22;3896;48.758;8.888;2022-12-18T03:48:46;-11.50;64.80
7708;DHT22;3896;48.758;8.888;2022-12-18T03:51:25;-11.50;64.80
7708;DHT22;3896;48.758;8.888;2022-12-18T03:56:22;-11.40;64.90
7708;DHT22;3896;48.758;8.888;2022-12-18T03:58:50;-11.40;65.10
7708;DHT22;3896;48.758;8.888;2022-12-18T04:01:20;-11.30;65.10
7708;DHT22;3896;48.758;8.888;2022-12-18T04:03:49;-11.30;65.20
7708;DHT22;3896;48.758;8.888;2022-12-18T04:06:15;-11.30;65.20
7708;DHT22;3896;48.758;8.888;2022-12-18T04:08:42;-11.20;65.50
7708;DHT22;3896;48.758;8.888;2022-12-18T04:11:08;-11.20;65.60
7708;DHT22;3896;48.758;8.888;2022-12-18T04:13:37;-11.20;65.60
7708;DHT22;3896;48.758;8.888;2022-12-18T04:16:03;-11.20;65.70
7708;DHT22;3896;48.758;8.888;2022-12-18T04:18:29;-11.10;65.90
7708;DHT22;3896;48.758;8.888;2022-12-18T04:20:55;-11.10;66.00
7708;DHT22;3896;48.758;8.888;2022-12-18T04:23:20;-11.10;66.00
7708;DHT22;3896;48.758;8.888;2022-12-18T04:25:47;-11.10;66.10
7708;DHT22;3896;48.758;8.888;2022-12-18T04:28:13;-11.00;66.20
7708;DHT22;3896;48.758;8.888;2022-12-18T04:30:38;-11.00;66.30
7708;DHT22;3896;48.758;8.888;2022-12-18T04:33:08;-11.00;66.40
7708;DHT22;3896;48.758;8.888;2022-12-18T04:35:34;-10.90;66.60
7708;DHT22;3896;48.758;8.888;2022-12-18T04:38:00;-10.90;66.60
7708;DHT22;3896;48.758;8.888;2022-12-18T04:40:25;-10.90;66.70
7708;DHT22;3896;48.758;8.888;2022-12-18T04:42:51;-10.90;66.80
7708;DHT22;3896;48.758;8.888;2022-12-18T04:45:16;-10.80;67.20
7708;DHT22;3896;48.758;8.888;2022-12-18T04:47:42;-10.80;67.40
7708;DHT22;3896;48.758;8.888;2022-12-18T04:50:08;-10.80;67.60
7708;DHT22;3896;48.758;8.888;2022-12-18T04:52:33;-10.70;67.60
7708;DHT22;3896;48.758;8.888;2022-12-18T04:54:59;-10.70;68.00
7708;DHT22;3896;48.758;8.888;2022-12-18T04:57:24;-10.70;68.00
7708;DHT22;3896;48.758;8.888;2022-12-18T04:59:50;-10.60;68.50
7708;DHT22;3896;48.758;8.888;2022-12-18T05:02:16;-10.60;68.60
7708;DHT22;3896;48.758;8.888;2022-12-18T05:04:41;-10.60;68.70
7708;DHT22;3896;48.758;8.888;2022-12-18T05:07:07;-10.60;69.00
7708;DHT22;3896;48.758;8.888;2022-12-18T05:09:32;-10.50;69.10
7708;DHT22;3896;48.758;8.888;2022-12-18T05:11:58;-10.50;69.40
7708;DHT22;3896;48.758;8.888;2022-12-18T05:14:23;-10.50;69.30
7708;DHT22;3896;48.758;8.888;2022-12-18T05:16:49;-10.40;69.50
7708;DHT22;3896;48.758;8.888;2022-12-18T05:19:14;-10.40;69.50
7708;DHT22;3896;48.758;8.888;2022-12-18T05:21:40;-10.30;69.60
7708;DHT22;3896;48.758;8.888;2022-12-18T05:24:05;-10.30;69.60
7708;DHT22;3896;48.758;8.888;2022-12-18T05:26:31;-10.30;69.70
7708;DHT22;3896;48.758;8.888;2022-12-18T05:28:57;-10.20;70.00
7708;DHT22;3896;48.758;8.888;2022-12-18T05:31:22;-10.20;70.10
7708;DHT22;3896;48.758;8.888;2022-12-18T05:33:48;-10.10;70.20
7708;DHT22;3896;48.758;8.888;2022-12-18T05:36:13;-10.10;70.20
7708;DHT22;3896;48.758;8.888;2022-12-18T05:38:39;-10.00;70.30
7708;DHT22;3896;48.758;8.888;2022-12-18T05:41:05;-10.00;70.40
7708;DHT22;3896;48.758;8.888;2022-12-18T05:43:33;-10.00;70.30
7708;DHT22;3896;48.758;8.888;2022-12-18T05:46:03;-9.90;70.50
7708;DHT22;3896;48.758;8.888;2022-12-18T05:48:29;-9.90;70.60
7708;DHT22;3896;48.758;8.888;2022-12-18T05:50:55;-9.80;70.70
7708;DHT22;3896;48.758;8.888;2022-12-18T05:53:20;-9.80;70.60
7708;DHT22;3896;48.758;8.888;2022-12-18T05:55:46;-9.70;71.00
7708;DHT22;3896;48.758;8.888;2022-12-18T05:58:13;-9.70;71.40
7708;DHT22;3896;48.758;8.888;2022-12-18T06:00:41;-9.70;71.40
7708;DHT22;3896;48.758;8.888;2022-12-18T06:03:08;-9.60;71.50
7708;DHT22;3896;48.758;8.888;2022-12-18T06:05:36;-9.60;71.50
7708;DHT22;3896;48.758;8.888;2022-12-18T06:08:02;-9.60;71.50
7708;DHT22;3896;48.758;8.888;2022-12-18T06:10:28;-9.50;71.60
7708;DHT22;3896;48.758;8.888;2022-12-18T06:12:54;-9.50;71.60
7708;DHT22;3896;48.758;8.888;2022-12-18T06:15:19;-9.50;71.60
7708;DHT22;3896;48.758;8.888;2022-12-18T06:17:45;-9.40;71.80
7708;DHT22;3896;48.758;8.888;2022-12-18T06:20:10;-9.40;71.80
7708;DHT22;3896;48.758;8.888;2022-12-18T06:22:36;-9.40;72.20
7708;DHT22;3896;48.758;8.888;2022-12-18T06:25:01;-9.40;72.50
7708;DHT22;3896;48.758;8.888;2022-12-18T06:27:27;-9.40;72.60
7708;DHT22;3896;48.758;8.888;2022-12-18T06:29:52;-9.30;72.80
7708;DHT22;3896;48.758;8.888;2022-12-18T06:32:18;-9.30;73.00
7708;DHT22;3896;48.758;8.888;2022-12-18T06:34:44;-9.30;73.00
7708;DHT22;3896;48.758;8.888;2022-12-18T06:37:09;-9.30;73.00
7708;DHT22;3896;48.758;8.888;2022-12-18T06:39:35;-9.30;73.10
7708;DHT22;3896;48.758;8.888;2022-12-18T06:42:00;-9.30;73.30
7708;DHT22;3896;48.758;8.888;2022-12-18T06:44:26;-9.30;73.50
7708;DHT22;3896;48.758;8.888;2022-12-18T06:46:51;-9.30;73.70
7708;DHT22;3896;48.758;8.888;2022-12-18T06:49:17;-9.30;73.70
7708;DHT22;3896;48.758;8.888;2022-12-18T06:51:43;-9.30;73.90
7708;DHT22;3896;48.758;8.888;2022-12-18T06:54:08;-9.30;74.00
7708;DHT22;3896;48.758;8.888;2022-12-18T06:56:34;-9.20;74.20
7708;DHT22;3896;48.758;8.888;2022-12-18T06:59:00;-9.30;74.20
7708;DHT22;3896;48.758;8.888;2022-12-18T07:01:26;-8.80;79.00
7708;DHT22;3896;48.758;8.888;2022-12-18T07:03:53;-8.90;78.10
7708;DHT22;3896;48.758;8.888;2022-12-18T07:06:21;-9.00;77.50
7708;DHT22;3896;48.758;8.888;2022-12-18T07:08:47;-9.00;77.20
7708;DHT22;3896;48.758;8.888;2022-12-18T07:11:14;-9.00;77.00
7708;DHT22;3896;48.758;8.888;2022-12-18T07:13:39;-9.00;77.00
7708;DHT22;3896;48.758;8.888;2022-12-18T07:16:10;-9.10;76.70
7708;DHT22;3896;48.758;8.888;2022-12-18T07:18:36;-9.10;76.60
7708;DHT22;3896;48.758;8.888;2022-12-18T07:21:06;-9.10;76.60
7708;DHT22;3896;48.758;8.888;2022-12-18T07:23:34;-9.10;76.80
7708;DHT22;3896;48.758;8.888;2022-12-18T07:26:04;-9.10;76.90
7708;DHT22;3896;48.758;8.888;2022-12-18T07:28:31;-9.10;76.80
7708;DHT22;3896;48.758;8.888;2022-12-18T07:30:57;-9.10;76.80
7708;DHT22;3896;48.758;8.888;2022-12-18T07:33:22;-9.10;76.90
7708;DHT22;3896;48.758;8.888;2022-12-18T07:35:48;-9.00;77.10
7708;DHT22;3896;48.758;8.888;2022-12-18T07:38:13;-9.00;77.20
7708;DHT22;3896;48.758;8.888;2022-12-18T07:40:39;-9.00;77.10
7708;DHT22;3896;48.758;8.888;2022-12-18T07:43:04;-9.00;77.10
7708;DHT22;3896;48.758;8.888;2022-12-18T07:45:30;-9.00;77.30
7708;DHT22;3896;48.758;8.888;2022-12-18T07:47:55;-8.90;77.40
7708;DHT22;3896;48.758;8.888;2022-12-18T07:50:21;-8.90;77.60
7708;DHT22;3896;48.758;8.888;2022-12-18T07:52:47;-8.90;77.60
7708;DHT22;3896;48.758;8.888;2022-12-18T07:55:12;-8.90;77.60
7708;DHT22;3896;48.758;8.888;2022-12-18T07:57:38;-8.80;77.60
7708;DHT22;3896;48.758;8.888;2022-12-18T08:00:05;-8.80;77.60
7708;DHT22;3896;48.758;8.888;2022-12-18T08:02:31;-8.80;77.70
7708;DHT22;3896;48.758;8.888;2022-12-18T08:04:57;-8.80;78.10
7708;DHT22;3896;48.758;8.888;2022-12-18T08:07:23;-8.70;78.20
7708;DHT22;3896;48.758;8.888;2022-12-18T08:09:48;-8.70;78.30
7708;DHT22;3896;48.758;8.888;2022-12-18T08:12:14;-8.70;78.50
7708;DHT22;3896;48.758;8.888;2022-12-18T08:14:40;-8.60;79.30
7708;DHT22;3896;48.758;8.888;2022-12-18T08:17:06;-8.60;79.40
7708;DHT22;3896;48.758;8.888;2022-12-18T08:19:32;-8.50;79.60
7708;DHT22;3896;48.758;8.888;2022-12-18T08:21:57;-8.50;79.70
7708;DHT22;3896;48.758;8.888;2022-12-18T08:24:23;-8.50;79.80
7708;DHT22;3896;48.758;8.888;2022-12-18T08:26:49;-8.40;80.10
7708;DHT22;3896;48.758;8.888;2022-12-18T08:29:14;-8.40;80.50
7708;DHT22;3896;48.758;8.888;2022-12-18T08:31:40;-8.30;81.00
7708;DHT22;3896;48.758;8.888;2022-12-18T08:34:05;-8.30;81.30
7708;DHT22;3896;48.758;8.888;2022-12-18T08:36:31;-8.20;81.90
7708;DHT22;3896;48.758;8.888;2022-12-18T08:38:56;-8.10;82.50
7708;DHT22;3896;48.758;8.888;2022-12-18T08:41:22;-8.10;82.90
7708;DHT22;3896;48.758;8.888;2022-12-18T08:43:48;-8.00;83.40
7708;DHT22;3896;48.758;8.888;2022-12-18T08:46:38;-7.90;83.90
7708;DHT22;3896;48.758;8.888;2022-12-18T08:49:05;-7.90;84.40
7708;DHT22;3896;48.758;8.888;2022-12-18T08:51:31;-7.80;85.30
7708;DHT22;3896;48.758;8.888;2022-12-18T08:53:57;-7.70;85.70
7708;DHT22;3896;48.758;8.888;2022-12-18T08:56:22;-7.70;85.90
7708;DHT22;3896;48.758;8.888;2022-12-18T08:58:51;-7.60;86.50
7708;DHT22;3896;48.758;8.888;2022-12-18T09:01:17;-7.60;87.00
7708;DHT22;3896;48.758;8.888;2022-12-18T09:03:43;-7.50;87.60
7708;DHT22;3896;48.758;8.888;2022-12-18T09:06:08;-7.40;88.50
7708;DHT22;3896;48.758;8.888;2022-12-18T09:08:34;-7.40;88.90
7708;DHT22;3896;48.758;8.888;2022-12-18T09:10:59;-7.30;89.40
7708;DHT22;3896;48.758;8.888;2022-12-18T09:13:25;-7.20;89.80
7708;DHT22;3896;48.758;8.888;2022-12-18T09:15:53;-7.10;90.20
7708;DHT22;3896;48.758;8.888;2022-12-18T09:18:20;-7.10;90.60
7708;DHT22;3896;48.758;8.888;2022-12-18T09:20:46;-7.00;90.80
7708;DHT22;3896;48.758;8.888;2022-12-18T09:23:12;-6.90;91.20
7708;DHT22;3896;48.758;8.888;2022-12-18T09:25:38;-6.80;91.70
7708;DHT22;3896;48.758;8.888;2022-12-18T09:28:13;-6.80;92.20
7708;DHT22;3896;48.758;8.888;2022-12-18T09:30:41;-6.70;92.60
7708;DHT22;3896;48.758;8.888;2022-12-18T09:33:07;-6.60;93.30
7708;DHT22;3896;48.758;8.888;2022-12-18T09:35:36;-6.50;93.80
7708;DHT22;3896;48.758;8.888;2022-12-18T09:38:02;-6.40;94.50
7708;DHT22;3896;48.758;8.888;2022-12-18T09:40:34;-6.40;95.30
7708;DHT22;3896;48.758;8.888;2022-12-18T09:43:03;-6.30;95.80
7708;DHT22;3896;48.758;8.888;2022-12-18T09:45:44;-6.20;96.40
7708;DHT22;3896;48.758;8.888;2022-12-18T09:48:31;-6.10;97.20
7708;DHT22;3896;48.758;8.888;2022-12-18T09:51:02;-6.00;98.00
7708;DHT22;3896;48.758;8.888;2022-12-18T09:53:32;-5.90;98.80
7708;DHT22;3896;48.758;8.888;2022-12-18T09:56:01;-5.70;99.60
7708;DHT22;3896;48.758;8.888;2022-12-18T09:58:33;-5.60;99.90
7708;DHT22;3896;48.758;8.888;2022-12-18T10:01:01;-5.50;99.90
7708;DHT22;3896;48.758;8.888;2022-12-18T10:03:26;-5.40;99.90
7708;DHT22;3896;48.758;8.888;2022-12-18T10:11:43;-5.00;99.90
7708;DHT22;3896;48.758;8.888;2022-12-18T10:16:59;-4.70;99.90
7708;DHT22;3896;48.758;8.888;2022-12-18T10:19:38;-4.50;99.90
7708;DHT22;3896;48.758;8.888;2022-12-18T10:22:25;-4.40;99.90
7708;DHT22;3896;48.758;8.888;2022-12-18T10:25:23;-4.20;99.90
7708;DHT22;3896;48.758;8.888;2022-12-18T10:27:56;-4.10;99.90
7708;DHT22;3896;48.758;8.888;2022-12-18T10:30:24;-3.90;99.90
7708;DHT22;3896;48.758;8.888;2022-12-18T10:32:50;-3.70;99.90
7708;DHT22;3896;48.758;8.888;2022-12-18T10:35:26;-3.50;99.90
7708;DHT22;3896;48.758;8.888;2022-12-18T10:43:33;-2.90;99.90
7708;DHT22;3896;48.758;8.888;2022-12-18T10:51:32;-2.40;99.90
7708;DHT22;3896;48.758;8.888;2022-12-18T10:54:03;-2.20;99.90
7708;DHT22;3896;48.758;8.888;2022-12-18T10:56:31;-2.00;99.90
7708;DHT22;3896;48.758;8.888;2022-12-18T10:59:03;-1.90;99.90
7708;DHT22;3896;48.758;8.888;2022-12-18T11:01:50;-1.70;99.90
7708;DHT22;3896;48.758;8.888;2022-12-18T11:04:24;-1.50;99.90
7708;DHT22;3896;48.758;8.888;2022-12-18T11:09:23;-1.20;99.90
7708;DHT22;3896;48.758;8.888;2022-12-18T11:11:54;-1.00;99.90
7708;DHT22;3896;48.758;8.888;2022-12-18T11:17:31;-0.70;99.60
7708;DHT22;3896;48.758;8.888;2022-12-18T11:20:47;-0.60;98.90
7708;DHT22;3896;48.758;8.888;2022-12-18T11:23:02;-0.40;98.20
7708;DHT22;3896;48.758;8.888;2022-12-18T11:25:29;-0.20;97.50
7708;DHT22;3896;48.758;8.888;2022-12-18T11:28:00;-0.10;96.60
7708;DHT22;3896;48.758;8.888;2022-12-18T11:33:13;0.20;95.40
7708;DHT22;3896;48.758;8.888;2022-12-18T11:35:52;0.30;94.80
7708;DHT22;3896;48.758;8.888;2022-12-18T11:38:24;0.50;94.30
7708;DHT22;3896;48.758;8.888;2022-12-18T11:43:52;0.70;93.20
7708;DHT22;3896;48.758;8.888;2022-12-18T11:46:26;0.90;92.50
7708;DHT22;3896;48.758;8.888;2022-12-18T11:49:03;1.00;92.10
7708;DHT22;3896;48.758;8.888;2022-12-18T11:51:44;1.10;91.50
7708;DHT22;3896;48.758;8.888;2022-12-18T11:54:14;1.20;91.00
7708;DHT22;3896;48.758;8.888;2022-12-18T11:56:50;1.30;90.60
7708;DHT22;3896;48.758;8.888;2022-12-18T12:04:56;1.60;88.40
7708;DHT22;3896;48.758;8.888;2022-12-18T12:07:40;1.70;87.70
7708;DHT22;3896;48.758;8.888;2022-12-18T12:10:15;1.80;86.70
7708;DHT22;3896;48.758;8.888;2022-12-18T12:15:58;2.00;85.70
7708;DHT22;3896;48.758;8.888;2022-12-18T12:24:12;2.20;83.60
7708;DHT22;3896;48.758;8.888;2022-12-18T12:26:45;2.20;83.00
7708;DHT22;3896;48.758;8.888;2022-12-18T12:37:44;2.40;81.10
7708;DHT22;3896;48.758;8.888;2022-12-18T12:40:17;2.40;80.70
7708;DHT22;3896;48.758;8.888;2022-12-18T12:42:58;2.40;80.30
7708;DHT22;3896;48.758;8.888;2022-12-18T12:46:06;2.50;80.20
7708;DHT22;3896;48.758;8.888;2022-12-18T12:48:56;2.50;79.90
7708;DHT22;3896;48.758;8.888;2022-12-18T12:51:26;2.50;79.60
7708;DHT22;3896;48.758;8.888;2022-12-18T12:53:54;2.60;79.20
7708;DHT22;3896;48.758;8.888;2022-12-18T12:56:22;2.60;78.70
7708;DHT22;3896;48.758;8.888;2022-12-18T12:59:04;2.70;78.40
7708;DHT22;3896;48.758;8.888;2022-12-18T13:01:52;2.70;78.10
7708;DHT22;3896;48.758;8.888;2022-12-18T13:07:12;2.80;77.60
7708;DHT22;3896;48.758;8.888;2022-12-18T13:18:12;2.90;76.20
7708;DHT22;3896;48.758;8.888;2022-12-18T13:31:14;3.00;75.00
7708;DHT22;3896;48.758;8.888;2022-12-18T13:33:42;3.00;74.70
7708;DHT22;3896;48.758;8.888;2022-12-18T13:38:38;3.00;74.40
7708;DHT22;3896;48.758;8.888;2022-12-18T13:41:22;3.10;74.20
7708;DHT22;3896;48.758;8.888;2022-12-18T13:43:52;3.10;74.00
7708;DHT22;3896;48.758;8.888;2022-12-18T13:49:05;3.00;73.70
7708;DHT22;3896;48.758;8.888;2022-12-18T13:51:33;3.10;73.70
7708;DHT22;3896;48.758;8.888;2022-12-18T13:54:18;3.10;73.40
7708;DHT22;3896;48.758;8.888;2022-12-18T13:56:46;3.00;73.40
7708;DHT22;3896;48.758;8.888;2022-12-18T14:04:34;3.00;72.50
7708;DHT22;3896;48.758;8.888;2022-12-18T14:07:09;3.00;72.30
7708;DHT22;3896;48.758;8.888;2022-12-18T14:09:40;2.90;72.00
7708;DHT22;3896;48.758;8.888;2022-12-18T14:12:06;2.90;72.00
7708;DHT22;3896;48.758;8.888;2022-12-18T14:14:58;2.90;71.70
7708;DHT22;3896;48.758;8.888;2022-12-18T14:17:25;2.80;71.60
7708;DHT22;3896;48.758;8.888;2022-12-18T14:19:51;2.80;71.50
7708;DHT22;3896;48.758;8.888;2022-12-18T14:22:23;2.70;71.30
7708;DHT22;3896;48.758;8.888;2022-12-18T14:27:42;2.60;71.40
7708;DHT22;3896;48.758;8.888;2022-12-18T14:35:38;2.40;71.10
7708;DHT22;3896;48.758;8.888;2022-12-18T14:40:59;2.30;71.10
7708;DHT22;3896;48.758;8.888;2022-12-18T14:43:32;2.20;71.00
7708;DHT22;3896;48.758;8.888;2022-12-18T14:45:59;2.10;71.10
7708;DHT22;3896;48.758;8.888;2022-12-18T14:48:41;2.10;71.10
7708;DHT22;3896;48.758;8.888;2022-12-18T14:53:44;2.00;71.10
7708;DHT22;3896;48.758;8.888;2022-12-18T14:56:18;1.90;71.10
7708;DHT22;3896;48.758;8.888;2022-12-18T14:58:49;1.80;70.90
7708;DHT22;3896;48.758;8.888;2022-12-18T15:01:27;1.80;70.90
7708;DHT22;3896;48.758;8.888;2022-12-18T15:03:55;1.70;70.70
7708;DHT22;3896;48.758;8.888;2022-12-18T15:06:33;1.60;70.70
7708;DHT22;3896;48.758;8.888;2022-12-18T15:09:00;1.50;70.60
7708;DHT22;3896;48.758;8.888;2022-12-18T15:14:31;1.30;70.30
7708;DHT22;3896;48.758;8.888;2022-12-18T15:16:59;1.20;70.10
7708;DHT22;3896;48.758;8.888;2022-12-18T15:19:33;1.10;70.10
7708;DHT22;3896;48.758;8.888;2022-12-18T15:21:59;1.00;70.10
7708;DHT22;3896;48.758;8.888;2022-12-18T15:24:29;0.90;70.20
7708;DHT22;3896;48.758;8.888;2022-12-18T15:26:56;0.80;70.50
7708;DHT22;3896;48.758;8.888;2022-12-18T15:29:22;0.70;70.60
7708;DHT22;3896;48.758;8.888;2022-12-18T15:32:03;0.60;70.70
7708;DHT22;3896;48.758;8.888;2022-12-18T15:34:30;0.50;70.60
7708;DHT22;3896;48.758;8.888;2022-12-18T15:36:56;0.40;70.70
7708;DHT22;3896;48.758;8.888;2022-12-18T15:39:22;0.30;70.80
7708;DHT22;3896;48.758;8.888;2022-12-18T15:41:47;0.20;71.00
7708;DHT22;3896;48.758;8.888;2022-12-18T15:44:32;0.10;70.90
7708;DHT22;3896;48.758;8.888;2022-12-18T15:46:58;0.10;70.80
7708;DHT22;3896;48.758;8.888;2022-12-18T15:49:24;0.00;70.80
7708;DHT22;3896;48.758;8.888;2022-12-18T15:51:53;-0.10;70.80
7708;DHT22;3896;48.758;8.888;2022-12-18T15:54:20;-0.20;71.10
7708;DHT22;3896;48.758;8.888;2022-12-18T15:57:07;-0.30;70.80
7708;DHT22;3896;48.758;8.888;2022-12-18T15:59:52;-0.40;70.70
7708;DHT22;3896;48.758;8.888;2022-12-18T16:02:19;-0.50;70.40
7708;DHT22;3896;48.758;8.888;2022-12-18T16:04:45;-0.60;70.40
7708;DHT22;3896;48.758;8.888;2022-12-18T16:07:11;-0.70;70.60
7708;DHT22;3896;48.758;8.888;2022-12-18T16:09:37;-0.80;70.90
7708;DHT22;3896;48.758;8.888;2022-12-18T16:12:05;-0.90;70.70
7708;DHT22;3896;48.758;8.888;2022-12-18T16:14:32;-0.90;70.90
7708;DHT22;3896;48.758;8.888;2022-12-18T16:17:02;-1.00;70.80
7708;DHT22;3896;48.758;8.888;2022-12-18T16:19:29;-1.00;70.90
7708;DHT22;3896;48.758;8.888;2022-12-18T16:21:57;-1.10;70.90
7708;DHT22;3896;48.758;8.888;2022-12-18T16:24:28;-1.10;71.20
7708;DHT22;3896;48.758;8.888;2022-12-18T16:26:55;-1.20;71.40
7708;DHT22;3896;48.758;8.888;2022-12-18T16:29:21;-1.30;71.60
7708;DHT22;3896;48.758;8.888;2022-12-18T16:31:50;-1.30;71.90
7708;DHT22;3896;48.758;8.888;2022-12-18T16:34:31;-1.40;72.20
7708;DHT22;3896;48.758;8.888;2022-12-18T16:36:58;-1.40;72.60
7708;DHT22;3896;48.758;8.888;2022-12-18T16:39:25;-1.40;73.10
7708;DHT22;3896;48.758;8.888;2022-12-18T16:41:50;-1.50;73.50
7708;DHT22;3896;48.758;8.888;2022-12-18T16:44:17;-1.50;74.00
7708;DHT22;3896;48.758;8.888;2022-12-18T16:46:43;-1.50;74.60
7708;DHT22;3896;48.758;8.888;2022-12-18T16:49:13;-1.50;75.10
7708;DHT22;3896;48.758;8.888;2022-12-18T16:51:39;-1.50;75.60
7708;DHT22;3896;48.758;8.888;2022-12-18T16:54:05;-1.50;76.20
7708;DHT22;3896;48.758;8.888;2022-12-18T16:56:31;-1.50;76.60
7708;DHT22;3896;48.758;8.888;2022-12-18T16:58:59;-1.50;77.10
7708;DHT22;3896;48.758;8.888;2022-12-18T17:01:26;-1.50;77.50
7708;DHT22;3896;48.758;8.888;2022-12-18T17:04:02;-1.50;77.90
7708;DHT22;3896;48.758;8.888;2022-12-18T17:06:30;-1.50;78.20
7708;DHT22;3896;48.758;8.888;2022-12-18T17:09:04;-1.50;78.50
7708;DHT22;3896;48.758;8.888;2022-12-18T17:11:32;-1.50;78.70
7708;DHT22;3896;48.758;8.888;2022-12-18T17:13:58;-1.50;79.00
7708;DHT22;3896;48.758;8.888;2022-12-18T17:16:24;-1.50;79.40
7708;DHT22;3896;48.758;8.888;2022-12-18T17:18:51;-1.50;79.50
7708;DHT22;3896;48.758;8.888;2022-12-18T17:21:17;-1.50;79.80
7708;DHT22;3896;48.758;8.888;2022-12-18T17:23:43;-1.50;80.00
7708;DHT22;3896;48.758;8.888;2022-12-18T17:26:13;-1.50;80.30
7708;DHT22;3896;48.758;8.888;2022-12-18T17:28:40;-1.50;80.70
7708;DHT22;3896;48.758;8.888;2022-12-18T17:31:11;-1.50;80.80
7708;DHT22;3896;48.758;8.888;2022-12-18T17:33:37;-1.50;80.90
7708;DHT22;3896;48.758;8.888;2022-12-18T17:36:02;-1.50;81.10
7708;DHT22;3896;48.758;8.888;2022-12-18T17:38:28;-1.50;81.30
7708;DHT22;3896;48.758;8.888;2022-12-18T17:40:53;-1.50;81.60
7708;DHT22;3896;48.758;8.888;2022-12-18T17:43:19;-1.50;81.70
7708;DHT22;3896;48.758;8.888;2022-12-18T17:45:44;-1.50;81.90
7708;DHT22;3896;48.758;8.888;2022-12-18T17:48:10;-1.50;82.20
7708;DHT22;3896;48.758;8.888;2022-12-18T17:50:36;-1.40;82.30
7708;DHT22;3896;48.758;8.888;2022-12-18T17:53:02;-1.40;82.50
7708;DHT22;3896;48.758;8.888;2022-12-18T17:55:28;-1.40;82.70
7708;DHT22;3896;48.758;8.888;2022-12-18T17:57:54;-1.40;83.00
7708;DHT22;3896;48.758;8.888;2022-12-18T18:00:20;-1.40;83.30
7708;DHT22;3896;48.758;8.888;2022-12-18T18:02:46;-1.40;83.60
7708;DHT22;3896;48.758;8.888;2022-12-18T18:05:11;-1.40;83.90
7708;DHT22;3896;48.758;8.888;2022-12-18T18:07:38;-1.40;84.10
7708;DHT22;3896;48.758;8.888;2022-12-18T18:10:04;-1.40;84.40
7708;DHT22;3896;48.758;8.888;2022-12-18T18:12:30;-1.40;84.50
7708;DHT22;3896;48.758;8.888;2022-12-18T18:15:15;-1.40;84.70
7708;DHT22;3896;48.758;8.888;2022-12-18T18:17:40;-1.40;85.00